カーブル の空港の天気 - METARとTAF

カーブル国際空港 ( OAKB / KBL ) - アフガニスタン カーブル
飛行場実況気象(Metar)
観測時間12/14 10:20 AFT (12/14 05:50 UTC)
風向・風速北西 2m/s
視程6000m
天気現象煙霧
なし
気温6℃
湿度36%
気圧1029hPa
METAROAKB 140550Z 32004KT 6000 2000S HZ NSC 06/M08 Q1029 NOSIG RMK A3039 WHT WHT
過去の天気等 Google飛行場航空写真 Wunderground天気予報

過去48時間のMETAR

飛行場予報(TAF)
発表時間: 12/14 09:35 AFT (12/14 05:05 UTC)
予報対象時間: 14日10時 AFT ~ 15日10時 AFT
風向・風速不定 1m/s
視程6000m
なし
14日10時 AFT ~ 14日12時 AFT に徐々に
視程8000m
14日18時 AFT ~ 14日20時 AFT に徐々に
視程3000m
天気現象
15日0時 AFT から 確率 40% で
視程1800m
15日7時 AFT ~ 15日9時 AFT に徐々に
視程6000m
TAF OAKB 140505Z 1406/1506 VRB02KT 6000 NSC
BECMG 1406/1408 8000
BECMG 1414/1416 3000 FU
PROB40 1420/1424 1800
BECMG 1503/1505 6000